createdAt,value
2022-10-08T00:00:12.950Z,7.70
2022-10-08T00:02:59.150Z,7.83
2022-10-08T00:06:28.079Z,7.03
2022-10-08T00:09:14.314Z,8.53
2022-10-08T00:12:00.402Z,8.13
2022-10-08T00:14:47.183Z,6.73
2022-10-08T00:17:33.831Z,7.23
2022-10-08T00:20:21.890Z,7.07
2022-10-08T00:23:08.403Z,6.70
2022-10-08T00:25:54.904Z,6.83
2022-10-08T00:28:43.835Z,7.00
2022-10-08T00:31:40.416Z,7.37
2022-10-08T00:34:27.520Z,7.37
2022-10-08T00:37:15.314Z,7.37
2022-10-08T00:40:01.752Z,6.50
2022-10-08T00:42:48.162Z,6.17
2022-10-08T00:45:34.652Z,6.73
2022-10-08T00:48:25.834Z,6.97
2022-10-08T00:51:12.201Z,7.10
2022-10-08T00:54:01.090Z,6.87
2022-10-08T00:56:53.574Z,6.93
2022-10-08T00:59:40.006Z,6.57
2022-10-08T01:02:26.308Z,6.90
2022-10-08T01:05:15.892Z,6.80
2022-10-08T01:08:34.621Z,7.07
2022-10-08T01:11:33.322Z,8.00
2022-10-08T01:14:34.910Z,7.07
2022-10-08T01:17:27.186Z,7.40
2022-10-08T01:20:41.726Z,7.60
2022-10-08T01:23:50.568Z,7.40
2022-10-08T01:26:54.711Z,7.30
2022-10-08T01:29:46.699Z,6.90
2022-10-08T01:32:43.376Z,7.20
2022-10-08T01:35:33.474Z,6.90
2022-10-08T01:38:21.910Z,7.90
2022-10-08T01:41:11.063Z,7.20
2022-10-08T01:44:07.508Z,7.57
2022-10-08T01:46:59.106Z,6.77
2022-10-08T01:50:08.133Z,7.30
2022-10-08T01:52:59.481Z,7.03
2022-10-08T01:55:51.074Z,6.37
2022-10-08T01:58:55.996Z,7.30
2022-10-08T02:02:08.048Z,6.50
2022-10-08T02:04:56.781Z,7.73
2022-10-08T02:07:43.481Z,7.40
2022-10-08T02:10:30.286Z,7.50
2022-10-08T02:13:16.811Z,7.87
2022-10-08T02:16:11.783Z,7.20
2022-10-08T02:19:07.479Z,6.83
2022-10-08T02:21:56.154Z,7.40
2022-10-08T02:24:56.037Z,6.93
2022-10-08T02:28:04.329Z,8.07
2022-10-08T02:30:58.595Z,7.00
2022-10-08T02:33:54.681Z,7.77
2022-10-08T02:36:44.468Z,7.60
2022-10-08T02:39:34.445Z,7.77
2022-10-08T02:42:24.409Z,7.00
2022-10-08T02:45:17.928Z,6.93
2022-10-08T02:48:14.862Z,8.43
2022-10-08T02:51:10.186Z,8.73
2022-10-08T02:53:59.114Z,7.80
2022-10-08T02:56:55.570Z,7.50
2022-10-08T02:59:42.266Z,8.63
2022-10-08T03:03:01.196Z,7.43
2022-10-08T03:05:50.862Z,8.77
2022-10-08T03:08:43.439Z,7.60
2022-10-08T03:11:31.514Z,7.57
2022-10-08T03:14:20.477Z,9.27
2022-10-08T03:17:14.164Z,9.23
2022-10-08T03:20:09.254Z,8.57
2022-10-08T03:23:00.125Z,7.97
2022-10-08T03:25:46.467Z,8.10
2022-10-08T03:28:32.781Z,7.13
2022-10-08T03:31:19.492Z,7.27
2022-10-08T03:34:05.693Z,7.77
2022-10-08T03:36:51.866Z,7.83
2022-10-08T03:39:38.049Z,7.37
2022-10-08T03:42:24.596Z,7.23
2022-10-08T03:45:10.827Z,8.20
2022-10-08T03:47:57.090Z,7.47
2022-10-08T03:50:54.907Z,8.87
2022-10-08T03:53:43.029Z,9.00
2022-10-08T03:56:29.304Z,7.60
2022-10-08T03:59:15.503Z,6.83
2022-10-08T04:02:01.927Z,9.20
2022-10-08T04:04:48.504Z,9.27
2022-10-08T04:07:34.707Z,7.50
2022-10-08T04:10:21.347Z,8.77
2022-10-08T04:13:07.601Z,8.20
2022-10-08T04:16:00.354Z,9.47
2022-10-08T04:18:47.842Z,8.90
2022-10-08T04:21:33.939Z,9.00
2022-10-08T04:24:20.186Z,8.30
2022-10-08T04:27:06.380Z,9.07
2022-10-08T04:29:52.902Z,8.90
2022-10-08T04:32:39.049Z,11.57
2022-10-08T04:35:25.350Z,9.57
2022-10-08T04:38:11.679Z,9.83
2022-10-08T04:41:25.650Z,11.53
2022-10-08T04:44:12.778Z,10.67
2022-10-08T04:46:58.957Z,8.97
2022-10-08T04:49:45.318Z,9.70
2022-10-08T04:52:32.029Z,10.23
2022-10-08T04:55:18.494Z,10.47
2022-10-08T04:58:05.519Z,8.70
2022-10-08T05:00:52.748Z,9.17
2022-10-08T05:03:41.569Z,9.30
2022-10-08T05:06:30.559Z,8.20
2022-10-08T05:09:16.820Z,8.80
2022-10-08T05:12:03.413Z,8.93
2022-10-08T05:14:49.499Z,8.87
2022-10-08T05:17:36.099Z,8.57
2022-10-08T05:20:22.251Z,7.40
2022-10-08T05:23:08.808Z,8.67
2022-10-08T05:25:55.013Z,8.70
2022-10-08T05:28:42.173Z,8.10
2022-10-08T05:31:30.220Z,7.83
2022-10-08T05:34:16.791Z,8.43
2022-10-08T05:37:02.911Z,7.40
2022-10-08T05:39:49.562Z,7.93
2022-10-08T05:42:35.886Z,8.83
2022-10-08T05:45:23.373Z,8.43
2022-10-08T05:48:09.473Z,7.63
2022-10-08T05:50:55.884Z,7.03
2022-10-08T05:53:44.315Z,6.77
2022-10-08T05:56:31.592Z,7.27
2022-10-08T05:59:21.284Z,6.23
2022-10-08T06:02:09.618Z,6.93
2022-10-08T06:04:56.231Z,6.87
2022-10-08T06:07:42.438Z,6.27
2022-10-08T06:10:29.999Z,6.13
2022-10-08T06:13:16.182Z,6.40
2022-10-08T06:16:11.073Z,5.83
2022-10-08T06:18:58.235Z,6.47
2022-10-08T06:21:44.707Z,6.20
2022-10-08T06:24:31.126Z,5.37
2022-10-08T06:27:17.336Z,5.67
2022-10-08T06:30:03.986Z,5.40
2022-10-08T06:32:50.518Z,5.70
2022-10-08T06:35:37.679Z,5.67
2022-10-08T06:38:23.773Z,5.77
2022-10-08T06:41:10.137Z,5.27
2022-10-08T06:43:56.610Z,5.90
2022-10-08T06:46:43.137Z,6.23
2022-10-08T06:49:29.409Z,5.27
2022-10-08T06:52:15.563Z,4.90
2022-10-08T06:55:01.889Z,4.87
2022-10-08T06:57:48.448Z,5.00
2022-10-08T07:00:35.570Z,4.60
2022-10-08T07:03:21.975Z,5.60
2022-10-08T07:06:11.501Z,4.97
2022-10-08T07:09:00.013Z,4.60
2022-10-08T07:11:46.382Z,4.10
2022-10-08T07:14:32.647Z,3.47
2022-10-08T07:17:18.859Z,3.83
2022-10-08T07:20:05.927Z,2.80
2022-10-08T07:22:52.330Z,3.00
2022-10-08T07:25:38.605Z,3.03
2022-10-08T07:28:26.538Z,2.73
2022-10-08T07:31:15.216Z,2.30
2022-10-08T07:34:04.431Z,2.70
2022-10-08T07:36:50.896Z,2.70
2022-10-08T07:39:37.461Z,2.97
2022-10-08T07:42:23.667Z,2.80
2022-10-08T07:45:10.715Z,2.47
2022-10-08T07:47:57.333Z,3.00
2022-10-08T07:50:43.528Z,3.00
2022-10-08T07:53:29.903Z,2.60
2022-10-08T07:56:18.971Z,2.53
2022-10-08T07:59:06.486Z,2.67
2022-10-08T08:01:52.854Z,2.40
2022-10-08T08:04:39.338Z,2.43
2022-10-08T08:07:25.616Z,2.90
2022-10-08T08:10:12.225Z,2.60
2022-10-08T08:12:58.286Z,2.90
2022-10-08T08:15:44.471Z,3.10
2022-10-08T08:18:33.950Z,2.73
2022-10-08T08:21:28.711Z,2.90
2022-10-08T08:24:16.492Z,2.50
2022-10-08T08:27:02.968Z,2.20
2022-10-08T08:29:49.128Z,3.20
2022-10-08T08:32:35.710Z,2.33
2022-10-08T08:35:21.737Z,2.20
2022-10-08T08:38:08.253Z,2.33
2022-10-08T08:40:57.112Z,2.20
2022-10-08T08:43:43.341Z,2.57
2022-10-08T08:46:33.653Z,2.30
2022-10-08T08:49:41.947Z,2.53
2022-10-08T08:52:38.200Z,2.30
2022-10-08T08:55:38.045Z,2.33
2022-10-08T08:58:41.957Z,2.10
2022-10-08T09:01:39.947Z,2.80
2022-10-08T09:05:05.160Z,2.50
2022-10-08T09:08:00.917Z,2.63
2022-10-08T09:11:01.551Z,2.33
2022-10-08T09:13:55.874Z,2.70
2022-10-08T09:16:42.117Z,2.30
2022-10-08T09:19:29.244Z,3.17
2022-10-08T09:22:23.889Z,2.27
2022-10-08T09:25:17.451Z,1.97
2022-10-08T09:28:06.593Z,1.87
2022-10-08T09:30:55.551Z,2.13
2022-10-08T09:33:46.411Z,2.07
2022-10-08T09:36:36.935Z,2.10
2022-10-08T09:39:25.922Z,1.80
2022-10-08T09:42:17.452Z,1.57
2022-10-08T09:45:24.296Z,2.53
2022-10-08T09:48:26.037Z,1.70
2022-10-08T09:51:16.521Z,2.53
2022-10-08T09:54:05.211Z,1.67
2022-10-08T09:56:54.815Z,2.10
2022-10-08T09:59:50.502Z,1.97
2022-10-08T10:02:38.394Z,1.67
2022-10-08T10:05:27.248Z,1.53
2022-10-08T10:08:44.399Z,1.80
2022-10-08T10:11:51.138Z,2.13
2022-10-08T10:14:44.855Z,1.80
2022-10-08T10:17:39.645Z,1.83
2022-10-08T10:20:39.572Z,2.10
2022-10-08T10:23:40.419Z,1.83
2022-10-08T10:26:37.008Z,2.40
2022-10-08T10:29:29.146Z,1.83
2022-10-08T10:32:21.794Z,2.23
2022-10-08T10:35:24.706Z,1.60
2022-10-08T10:38:34.434Z,1.40
2022-10-08T10:41:43.359Z,1.70
2022-10-08T10:45:03.357Z,2.00
2022-10-08T10:47:51.054Z,1.70
2022-10-08T10:50:39.862Z,1.80
2022-10-08T10:53:54.947Z,1.73
2022-10-08T10:56:49.237Z,1.73
2022-10-08T11:00:26.235Z,2.03
2022-10-08T11:03:31.181Z,1.70
2022-10-08T11:06:35.927Z,2.53
2022-10-08T11:09:36.801Z,1.63
2022-10-08T11:12:43.475Z,1.50
2022-10-08T11:15:42.102Z,1.70
2022-10-08T11:18:51.880Z,2.57
2022-10-08T11:21:40.750Z,1.90
2022-10-08T11:24:39.578Z,1.60
2022-10-08T11:27:53.613Z,1.80
2022-10-08T11:30:39.981Z,1.97
2022-10-08T11:33:26.956Z,1.80
2022-10-08T11:36:38.595Z,1.50
2022-10-08T11:39:30.995Z,2.00
2022-10-08T11:42:48.539Z,1.73
2022-10-08T11:45:40.913Z,1.90
2022-10-08T11:48:35.800Z,1.67
2022-10-08T11:51:22.173Z,1.80
2022-10-08T11:54:31.058Z,1.63
2022-10-08T11:58:06.565Z,1.83
2022-10-08T12:00:47.992Z,1.60
2022-10-08T12:03:37.648Z,1.33
2022-10-08T12:06:29.730Z,1.37
2022-10-08T12:09:23.247Z,2.20
2022-10-08T12:12:13.667Z,1.50
2022-10-08T12:15:00.147Z,1.50
2022-10-08T12:18:01.355Z,2.50
2022-10-08T12:21:16.308Z,1.60
2022-10-08T12:24:02.876Z,1.77
2022-10-08T12:27:16.983Z,1.60
2022-10-08T12:30:07.925Z,1.40
2022-10-08T12:32:55.973Z,2.27
2022-10-08T12:36:06.641Z,1.57
2022-10-08T12:39:09.010Z,1.50
2022-10-08T12:42:20.715Z,1.53
2022-10-08T12:45:25.046Z,1.50
2022-10-08T12:48:23.799Z,1.70
2022-10-08T12:51:26.056Z,1.20
2022-10-08T12:54:22.053Z,1.50
2022-10-08T12:57:11.670Z,1.40
2022-10-08T12:59:59.771Z,1.77
2022-10-08T13:03:12.503Z,1.60
2022-10-08T13:06:14.426Z,1.80
2022-10-08T13:09:01.167Z,1.80
2022-10-08T13:11:52.143Z,1.60
2022-10-08T13:14:41.789Z,1.60
2022-10-08T13:17:35.965Z,1.23
2022-10-08T13:20:23.738Z,1.40
2022-10-08T13:23:36.147Z,1.27
2022-10-08T13:26:43.897Z,1.40
2022-10-08T13:29:35.830Z,1.30
2022-10-08T13:32:30.137Z,1.40
2022-10-08T13:35:23.179Z,1.30
2022-10-08T13:38:19.601Z,1.20
2022-10-08T13:41:06.574Z,1.30
2022-10-08T13:43:52.963Z,1.10
2022-10-08T13:46:39.274Z,1.10
2022-10-08T13:49:28.030Z,0.90
2022-10-08T13:52:21.414Z,1.73
2022-10-08T13:55:21.330Z,0.87
2022-10-08T13:58:07.841Z,1.07
2022-10-08T14:00:54.689Z,0.70
2022-10-08T14:03:41.099Z,1.13
2022-10-08T14:06:27.645Z,1.20
2022-10-08T14:09:17.719Z,0.63
2022-10-08T14:12:05.339Z,1.10
2022-10-08T14:14:51.731Z,1.27
2022-10-08T14:17:38.302Z,0.97
2022-10-08T14:20:24.632Z,1.00
2022-10-08T14:23:13.393Z,1.10
2022-10-08T14:25:59.792Z,0.93
2022-10-08T14:28:46.245Z,1.40
2022-10-08T14:31:33.174Z,1.20
2022-10-08T14:34:19.356Z,1.20
2022-10-08T14:37:05.861Z,1.37
2022-10-08T14:39:52.306Z,1.97
2022-10-08T14:42:38.715Z,1.20
2022-10-08T14:45:25.160Z,1.20
2022-10-08T14:48:11.307Z,0.93
2022-10-08T14:50:58.049Z,1.07
2022-10-08T14:53:44.532Z,0.90
2022-10-08T14:56:30.710Z,1.20
2022-10-08T14:59:18.289Z,1.10
2022-10-08T15:02:04.693Z,1.10
2022-10-08T15:04:51.229Z,0.90
2022-10-08T15:07:37.647Z,1.10
2022-10-08T15:10:24.185Z,0.87
2022-10-08T15:13:10.750Z,0.83
2022-10-08T15:15:57.533Z,1.00
2022-10-08T15:18:44.252Z,1.30
2022-10-08T15:21:30.676Z,1.20
2022-10-08T15:24:17.200Z,1.27
2022-10-08T15:27:03.277Z,1.10
2022-10-08T15:29:49.439Z,0.83
2022-10-08T15:32:37.134Z,1.13
2022-10-08T15:35:23.300Z,1.80
2022-10-08T15:38:09.777Z,1.07
2022-10-08T15:41:02.925Z,1.30
2022-10-08T15:43:49.269Z,1.17
2022-10-08T15:46:36.092Z,1.00
2022-10-08T15:49:22.435Z,1.13
2022-10-08T15:52:12.111Z,1.20
2022-10-08T15:54:58.251Z,1.40
2022-10-08T15:57:44.672Z,1.47
2022-10-08T16:00:37.841Z,1.57
2022-10-08T16:03:24.694Z,2.10
2022-10-08T16:06:13.936Z,1.33
2022-10-08T16:09:00.630Z,1.40
2022-10-08T16:11:47.387Z,1.10
2022-10-08T16:14:33.670Z,1.70
2022-10-08T16:17:19.919Z,2.00
2022-10-08T16:20:06.770Z,2.00
2022-10-08T16:22:52.994Z,2.20
2022-10-08T16:25:43.476Z,2.13
2022-10-08T16:28:34.368Z,3.03
2022-10-08T16:31:22.427Z,4.30
2022-10-08T16:34:18.233Z,3.73
2022-10-08T16:37:05.050Z,1.93
2022-10-08T16:39:51.620Z,2.33
2022-10-08T16:42:38.139Z,2.40
2022-10-08T16:45:24.370Z,1.90
2022-10-08T16:48:10.590Z,1.70
2022-10-08T16:50:56.995Z,3.13
2022-10-08T16:53:47.949Z,2.70
2022-10-08T16:56:36.870Z,2.53
2022-10-08T16:59:26.479Z,2.10
2022-10-08T17:02:12.634Z,1.87
2022-10-08T17:04:58.774Z,1.63
2022-10-08T17:07:45.165Z,1.60
2022-10-08T17:10:31.828Z,2.37
2022-10-08T17:13:18.111Z,2.13
2022-10-08T17:16:07.271Z,2.67
2022-10-08T17:18:56.250Z,2.23
2022-10-08T17:21:43.009Z,2.80
2022-10-08T17:24:29.351Z,2.77
2022-10-08T17:27:15.883Z,3.37
2022-10-08T17:30:02.276Z,2.90
2022-10-08T17:32:48.745Z,3.40
2022-10-08T17:35:35.083Z,3.17
2022-10-08T17:38:21.482Z,3.30
2022-10-08T17:41:21.306Z,2.50
2022-10-08T17:44:09.667Z,2.97
2022-10-08T17:46:56.121Z,2.53
2022-10-08T17:49:42.425Z,2.37
2022-10-08T17:52:30.138Z,2.17
2022-10-08T17:55:17.144Z,2.37
2022-10-08T17:58:03.367Z,2.10
2022-10-08T18:00:49.952Z,2.33
2022-10-08T18:03:37.642Z,2.37
2022-10-08T18:06:25.689Z,2.03
2022-10-08T18:09:15.174Z,2.53
2022-10-08T18:12:01.386Z,1.90
2022-10-08T18:14:48.157Z,2.13
2022-10-08T18:17:34.611Z,2.20
2022-10-08T18:20:20.882Z,1.97
2022-10-08T18:23:08.371Z,2.20
2022-10-08T18:25:54.758Z,2.37
2022-10-08T18:28:41.482Z,2.50
2022-10-08T18:31:31.215Z,2.50
2022-10-08T18:34:18.758Z,2.40
2022-10-08T18:37:04.890Z,2.40
2022-10-08T18:39:51.238Z,2.70
2022-10-08T18:42:37.714Z,2.70
2022-10-08T18:45:24.495Z,2.70
2022-10-08T18:48:10.678Z,3.43
2022-10-08T18:51:08.991Z,3.40
2022-10-08T18:53:57.631Z,3.60
2022-10-08T18:56:43.857Z,2.90
2022-10-08T18:59:31.944Z,4.10
2022-10-08T19:02:18.270Z,3.47
2022-10-08T19:05:04.964Z,4.10
2022-10-08T19:07:51.357Z,3.60
2022-10-08T19:10:37.738Z,3.40
2022-10-08T19:13:23.900Z,3.50
2022-10-08T19:16:13.544Z,4.63
2022-10-08T19:19:04.933Z,4.37
2022-10-08T19:21:52.094Z,4.17
2022-10-08T19:24:41.037Z,4.13
2022-10-08T19:27:27.833Z,4.47
2022-10-08T19:30:15.783Z,5.37
2022-10-08T19:33:01.973Z,5.40
2022-10-08T19:35:48.230Z,5.40
2022-10-08T19:38:35.218Z,5.20
2022-10-08T19:41:23.436Z,4.47
2022-10-08T19:44:10.121Z,4.37
2022-10-08T19:46:56.647Z,3.83
2022-10-08T19:49:43.204Z,4.10
2022-10-08T19:52:29.601Z,3.83
2022-10-08T19:55:16.054Z,3.50
2022-10-08T19:58:02.226Z,3.60
2022-10-08T20:00:56.962Z,4.07
2022-10-08T20:03:43.583Z,3.43
2022-10-08T20:06:31.521Z,3.90
2022-10-08T20:09:17.696Z,3.63
2022-10-08T20:12:04.149Z,3.80
2022-10-08T20:14:50.277Z,3.00
2022-10-08T20:17:36.947Z,3.83
2022-10-08T20:20:32.951Z,3.73
2022-10-08T20:23:20.078Z,3.00
2022-10-08T20:26:19.602Z,5.10
2022-10-08T20:29:08.914Z,3.70
2022-10-08T20:31:55.479Z,3.20
2022-10-08T20:34:41.729Z,3.70
2022-10-08T20:37:28.050Z,4.43
2022-10-08T20:40:14.208Z,3.80
2022-10-08T20:43:00.809Z,3.93
2022-10-08T20:45:47.190Z,3.40
2022-10-08T20:48:36.974Z,3.60
2022-10-08T20:51:25.921Z,4.03
2022-10-08T20:54:14.662Z,3.60
2022-10-08T20:57:00.728Z,3.80
2022-10-08T20:59:47.137Z,3.97
2022-10-08T21:02:33.579Z,3.90
2022-10-08T21:05:20.108Z,4.40
2022-10-08T21:08:06.931Z,4.63
2022-10-08T21:10:53.318Z,4.70
2022-10-08T21:13:39.778Z,4.40
2022-10-08T21:16:28.474Z,4.93
2022-10-08T21:19:21.901Z,4.57
2022-10-08T21:22:08.360Z,3.70
2022-10-08T21:24:54.488Z,4.60
2022-10-08T21:27:40.987Z,4.70
2022-10-08T21:30:27.157Z,4.37
2022-10-08T21:33:13.617Z,4.90
2022-10-08T21:36:00.014Z,4.40
2022-10-08T21:38:46.912Z,4.13
2022-10-08T21:41:35.196Z,5.23
2022-10-08T21:44:21.459Z,4.37
2022-10-08T21:47:07.667Z,4.27
2022-10-08T21:49:54.148Z,3.83
2022-10-08T21:52:40.278Z,5.30
2022-10-08T21:55:26.762Z,3.97
2022-10-08T21:58:13.124Z,3.90
2022-10-08T22:00:59.670Z,4.53
2022-10-08T22:03:46.438Z,4.40
2022-10-08T22:06:35.858Z,3.80
2022-10-08T22:09:25.786Z,4.17
2022-10-08T22:12:12.073Z,4.17
2022-10-08T22:14:58.669Z,3.63
2022-10-08T22:17:45.086Z,3.90
2022-10-08T22:20:31.237Z,4.27
2022-10-08T22:23:18.687Z,3.67
2022-10-08T22:26:08.260Z,4.67
2022-10-08T22:28:54.692Z,3.53
2022-10-08T22:31:41.103Z,4.20
2022-10-08T22:34:27.690Z,4.60
2022-10-08T22:37:13.879Z,3.87
2022-10-08T22:40:00.114Z,4.37
2022-10-08T22:42:46.786Z,3.80
2022-10-08T22:45:38.527Z,4.10
2022-10-08T22:48:25.024Z,5.67
2022-10-08T22:51:17.302Z,3.83
2022-10-08T22:54:03.765Z,3.63
2022-10-08T22:56:50.331Z,3.80
2022-10-08T22:59:36.519Z,3.70
2022-10-08T23:02:23.112Z,3.33
2022-10-08T23:05:09.309Z,3.87
2022-10-08T23:07:56.507Z,3.27
2022-10-08T23:10:42.903Z,4.20
2022-10-08T23:13:29.953Z,2.97
2022-10-08T23:16:16.184Z,3.67
2022-10-08T23:19:06.127Z,3.53
2022-10-08T23:21:52.434Z,3.60
2022-10-08T23:24:38.565Z,3.33
2022-10-08T23:27:25.133Z,4.30
2022-10-08T23:30:31.303Z,3.77
2022-10-08T23:33:18.430Z,3.47
2022-10-08T23:36:06.645Z,4.13
2022-10-08T23:38:53.149Z,2.80
2022-10-08T23:41:39.665Z,3.20
2022-10-08T23:44:26.085Z,3.03
2022-10-08T23:47:12.306Z,4.33
2022-10-08T23:49:58.733Z,3.10
2022-10-08T23:52:45.448Z,3.33
2022-10-08T23:55:32.189Z,3.20
2022-10-08T23:58:18.977Z,3.33
